Terminal Aerodrome Forecast
Issued by NWS

Home | Current Version | Previous Version | Text Only | Print | Product List | Glossary On
Versions: 1 2 3 4 5 6 7 8 9 10 11 12 13
000
FTAK31 PANC 231416 AAA
TAFADL
TAF AMD
PADL 231416Z 2314/2412 18005KT P6SM VCFG OVC005
      TEMPO 2314/2318 2SM BR VV002
     FM231800 18008KT P6SM SCT008 OVC015
     FM232100 17014G22KT P6SM SCT025 BKN060
     FM240600 18006KT P6SM SCT010 BKN025=

USA.gov is the U.S. government's official web portal to all federal, state and local government web resources and services.